Latest Coastal Weather Observations for Bedout Island

IDW60701

Issued at 6:12 pm WST Sunday 14 February 2016 (issued every 10 minutes, with the page automatically refreshed every 10 minutes)

About coastal observations | Map of coastal stations | Coastal observations for WA | Marine services | Other Formats
Station Details ID: 004100 Name: BEDOUT ISLAND Lat: -19.59 Lon: 119.10 Height: 8.6 m
Data from the previous 72 hours. | See also: Recent months at Bedout Island
Date/Time
WST
Temp

°C
Wind Pressure Rain
since 9am
mm
Weather Cloud Vis
km
Sea
Height
m
Swell
Dir
 
Speed
knots
Gust
knots
hPa Trend Height
m
Period
s
Dir
14/05:30pm 30.6 W 12 14 1007.7 - - - - - - - - -
14/05:00pm 31.3 W 11 12 1007.6 - - - - - - - - -
14/04:30pm 31.5 W 9 11 1007.8 - - - - - - - - -
14/04:00pm 31.7 W 8 9 1007.8 - - - - - - - - -
14/03:30pm 32.1 W 8 9 1007.9 - - - - - - - - -
14/02:30pm 31.8 W 8 9 1008.2 - - - - - - - - -
14/02:00pm 32.4 W 7 9 1008.6 - - - - - - - - -
14/01:30pm 32.2 W 7 8 1008.9 - - - - - - - - -
14/01:00pm 32.5 W 7 9 1009.1 - - - - - - - - -
14/12:30pm 32.9 W 9 11 1009.2 - - - - - - - - -
14/12:00pm 32.6 W 10 11 1009.2 - - - - - - - - -
14/11:30am 32.1 W 10 12 1009.5 - - - - - - - - -
14/11:00am 32.3 W 9 11 1009.7 - - - - - - - - -
14/10:30am 32.2 W 9 12 1010.0 - - - - - - - - -
14/10:00am 31.9 W 10 11 1009.9 - - - - - - - - -
14/09:30am 31.8 W 10 12 1009.7 - - - - - - - - -
14/09:00am 31.4 W 9 11 1009.7 - - - - - - - - -
14/08:30am 31.2 W 9 11 1009.8 - - - - - - - - -
14/08:00am 30.3 W 10 11 1009.7 - - - - - - - - -
14/07:30am 29.6 W 11 12 1009.5 - - - - - - - - -
14/07:00am 28.9 W 10 12 1009.3 - - - - - - - - -
14/06:30am 28.2 W 10 11 1009.0 - - - - - - - - -
14/06:00am 28.1 W 10 11 1008.8 - - - - - - - - -
14/05:30am 28.0 W 11 12 1008.3 - - - - - - - - -
14/05:00am 28.0 W 11 13 1008.1 - - - - - - - - -
14/04:30am 27.9 W 12 14 1008.0 - - - - - - - - -
14/04:00am 27.9 W 11 13 1007.9 - - - - - - - - -
14/03:00am 28.0 W 10 12 1007.6 - - - - - - - - -
14/02:30am 27.9 W 12 13 1007.6 - - - - - - - - -
14/02:00am 28.1 W 12 14 1007.6 - - - - - - - - -
14/12:00am 28.1 W 12 14 1008.4 - - - - - - - - -
 
Date/Time
WST
Temp

°C
Wind Pressure Rain
since 9am
mm
Weather Cloud Vis
km
Sea
Height
m
Swell
Dir
 
Speed
knots
Gust
knots
hPa Trend Height
m
Period
s
Dir
13/11:30pm 28.0 W 14 17 1008.6 - - - - - - - - -
13/11:00pm 28.0 W 15 18 1008.4 - - - - - - - - -
13/10:30pm 27.9 W 16 18 1008.2 - - - - - - - - -
13/10:00pm 28.0 WNW 16 18 1008.3 - - - - - - - - -
13/09:30pm 28.1 W 16 18 1008.3 - - - - - - - - -
13/09:00pm 28.1 W 16 18 1008.3 - - - - - - - - -
13/08:30pm 28.3 W 13 15 1008.7 - - - - - - - - -
13/08:00pm 28.4 W 12 13 1008.8 - - - - - - - - -
13/07:30pm 28.3 W 10 13 1008.5 - - - - - - - - -
13/07:00pm 28.6 W 14 16 1007.7 - - - - - - - - -
13/06:30pm 29.0 W 15 17 1007.2 - - - - - - - - -
13/06:00pm 29.7 WNW 16 17 1006.9 - - - - - - - - -
13/05:30pm 30.7 WNW 14 17 1006.9 - - - - - - - - -
13/05:00pm 31.1 WNW 14 16 1007.1 - - - - - - - - -
13/04:30pm 31.7 NW 13 15 1007.2 - - - - - - - - -
13/04:00pm 32.5 NW 14 17 1007.3 - - - - - - - - -
13/03:30pm 32.8 NW 14 16 1007.5 - - - - - - - - -
13/03:00pm 32.5 NW 13 15 1007.5 - - - - - - - - -
13/02:30pm 32.8 NW 14 17 1007.8 - - - - - - - - -
13/02:00pm 33.0 NW 13 16 1007.9 - - - - - - - - -
13/01:30pm 33.0 NW 16 18 1008.0 - - - - - - - - -
13/01:00pm 32.9 NW 16 18 1008.3 - - - - - - - - -
13/12:30pm 33.5 NNW 15 19 1008.5 - - - - - - - - -
13/12:00pm 33.0 NNW 14 18 1008.6 - - - - - - - - -
13/11:30am 33.0 NNW 14 17 1008.8 - - - - - - - - -
13/11:00am 32.7 NW 14 18 1009.1 - - - - - - - - -
13/10:30am 32.3 NW 14 18 1009.3 - - - - - - - - -
13/10:00am 32.5 NW 14 17 1009.5 - - - - - - - - -
13/09:30am 32.0 NW 14 17 1009.6 - - - - - - - - -
13/09:00am 31.7 NW 14 17 1009.3 - - - - - - - - -
13/08:30am 30.8 NW 16 19 1009.2 - - - - - - - - -
13/08:00am 30.2 NW 16 19 1009.3 - - - - - - - - -
13/07:30am 29.6 NNW 14 17 1009.3 - - - - - - - - -
13/07:00am 29.0 NNW 12 16 1009.2 - - - - - - - - -
13/06:30am 28.3 NW 13 17 1009.1 - - - - - - - - -
13/06:00am 28.1 NNW 12 15 1008.8 - - - - - - - - -
13/05:30am 28.0 W 10 12 1008.4 - - - - - - - - -
13/05:00am 28.0 W 9 11 1008.1 - - - - - - - - -
13/04:30am 27.9 W 7 9 1008.1 - - - - - - - - -
13/04:00am 28.1 W 9 11 1007.7 - - - - - - - - -
13/03:30am 28.2 W 8 11 1007.3 - - - - - - - - -
13/03:00am 28.3 W 10 12 1007.2 - - - - - - - - -
13/02:30am 28.5 W 5 8 1007.5 - - - - - - - - -
13/02:00am 28.6 W 13 16 1006.8 - - - - - - - - -
13/01:30am 28.6 W 13 15 1006.9 - - - - - - - - -
13/01:00am 28.6 W 14 15 1006.6 - - - - - - - - -
13/12:30am 28.7 W 15 17 1006.8 - - - - - - - - -
13/12:00am 28.7 W 14 16 1006.9 - - - - - - - - -
 
Date/Time
WST
Temp

°C
Wind Pressure Rain
since 9am
mm
Weather Cloud Vis
km
Sea
Height
m
Swell
Dir
 
Speed
knots
Gust
knots
hPa Trend Height
m
Period
s
Dir
12/11:30pm 28.8 W 14 16 1007.3 - - - - - - - - -
12/11:00pm 28.8 W 14 16 1007.4 - - - - - - - - -
12/10:30pm 28.9 W 14 15 1007.5 - - - - - - - - -
12/10:00pm 28.9 W 13 15 1007.7 - - - - - - - - -
12/09:30pm 29.0 W 12 15 1007.6 - - - - - - - - -
12/09:00pm 29.1 NW 12 14 1007.2 - - - - - - - - -
12/08:30pm 29.2 NW 11 13 1006.7 - - - - - - - - -
12/08:00pm 29.1 NW 11 14 1006.6 - - - - - - - - -
12/07:30pm 29.1 NW 11 13 1006.2 - - - - - - - - -
12/07:00pm 29.1 WNW 12 13 1005.8 - - - - - - - - -
12/06:30pm 29.7 WNW 12 14 1005.5 - - - - - - - - -
12/06:00pm 30.5 WNW 11 13 1005.3 - - - - - - - - -
12/05:30pm 31.5 WNW 11 12 1005.1 - - - - - - - - -
12/05:00pm 31.9 WNW 10 12 1004.8 - - - - - - - - -
12/04:30pm 32.7 WNW 11 13 1005.0 - - - - - - - - -
12/04:00pm 32.7 WNW 10 12 1005.0 - - - - - - - - -
12/03:30pm 32.8 WNW 10 11 1005.1 - - - - - - - - -
12/03:00pm 33.6 WNW 9 11 1005.4 - - - - - - - - -
12/02:30pm 33.0 WNW 9 11 1005.9 - - - - - - - - -
12/02:00pm 33.6 WNW 9 11 1006.1 - - - - - - - - -
12/01:30pm 33.0 WNW 9 10 1006.4 - - - - - - - - -
12/01:00pm 32.9 WNW 9 10 1006.7 - - - - - - - - -
12/12:30pm 33.6 WNW 9 12 1006.9 - - - - - - - - -
12/12:00pm 33.7 WNW 9 11 1007.2 - - - - - - - - -
12/11:30am 33.2 WNW 10 11 1007.5 - - - - - - - - -
12/11:00am 32.7 WNW 10 13 1007.5 - - - - - - - - -
12/10:30am 32.6 WNW 10 13 1007.8 - - - - - - - - -
12/10:00am 32.0 WNW 10 13 1008.0 - - - - - - - - -
12/09:30am 32.3 WNW 12 15 1007.9 - - - - - - - - -
12/09:00am 31.8 SW 10 13 1007.9 - - - - - - - - -
12/08:30am 31.6 SW 9 11 1008.2 - - - - - - - - -
12/08:00am 30.8 SW 12 16 1007.9 - - - - - - - - -
12/07:30am 30.3 SW 7 9 1007.9 - - - - - - - - -
12/07:00am 29.2 SW 7 8 1007.5 - - - - - - - - -
12/06:30am 28.3 SW 9 10 1007.4 - - - - - - - - -
12/06:00am 27.9 SW 8 9 1007.2 - - - - - - - - -
12/05:30am 27.7 SW 5 6 1007.0 - - - - - - - - -
12/05:00am 28.1 SW 6 8 1007.0 - - - - - - - - -
12/04:00am 28.1 SW 5 5 1006.6 - - - - - - - - -
12/03:30am 28.4 SW 4 5 1006.4 - - - - - - - - -
12/03:00am 28.5 SW 6 8 1006.2 - - - - - - - - -
12/02:30am 28.6 WSW 9 10 1006.4 - - - - - - - - -
12/02:00am 28.4 WSW 7 9 1006.6 - - - - - - - - -
12/01:30am 28.5 SW 9 10 1006.5 - - - - - - - - -
12/01:00am 28.5 SW 8 9 1006.6 - - - - - - - - -
12/12:30am 28.4 SW 7 8 1006.9 - - - - - - - - -
12/12:00am 28.6 SW 8 9 1007.0 - - - - - - - - -
 
Date/Time
WST
Temp

°C
Wind Pressure Rain
since 9am
mm
Weather Cloud Vis
km
Sea
Height
m
Swell
Dir
 
Speed
knots
Gust
knots
hPa Trend Height
m
Period
s
Dir
11/11:30pm 29.1 SW 10 11 1007.2 - - - - - - - - -
11/11:00pm 29.7 SW 12 15 1007.3 - - - - - - - - -
11/10:30pm 29.6 WSW 12 16 1007.5 - - - - - - - - -
11/10:00pm 29.5 WSW 8 8 1007.2 - - - - - - - - -
11/09:30pm 29.4 WSW 8 9 1007.1 - - - - - - - - -
11/09:00pm 29.3 WSW 9 10 1006.8 - - - - - - - - -
11/08:30pm 29.5 WSW 8 9 1006.8 - - - - - - - - -
11/08:00pm 29.5 WSW 7 8 1006.6 - - - - - - - - -
11/07:30pm 29.7 WSW 8 9 1006.3 - - - - - - - - -
11/07:00pm 30.0 WSW 8 8 1005.8 - - - - - - - - -
11/06:30pm 30.8 WSW 9 10 1005.6 - - - - - - - - -

Other Formats:

Comma delimited format used in spreadsheet applications
http://www.bom.gov.au/fwo/IDW60701/IDW60701.94310.axf

JavaScript Object Notation format (JSON) in row-major order
http://www.bom.gov.au/fwo/IDW60701/IDW60701.94310.json